sensor_id;sensor_type;location;lat;lon;timestamp;P1;durP1;ratioP1;P2;durP2;ratioP2
69985;SDS011;57328;52.054;5.294;2022-10-30T00:00:48;16.02;;;6.40;;
69985;SDS011;57328;52.054;5.294;2022-10-30T00:03:15;11.73;;;4.43;;
69985;SDS011;57328;52.054;5.294;2022-10-30T00:05:43;17.42;;;6.30;;
69985;SDS011;57328;52.054;5.294;2022-10-30T00:08:11;12.60;;;5.18;;
69985;SDS011;57328;52.054;5.294;2022-10-30T00:10:39;15.02;;;5.30;;
69985;SDS011;57328;52.054;5.294;2022-10-30T00:13:07;15.07;;;6.15;;
69985;SDS011;57328;52.054;5.294;2022-10-30T00:15:34;9.23;;;4.28;;
69985;SDS011;57328;52.054;5.294;2022-10-30T00:18:02;16.85;;;6.25;;
69985;SDS011;57328;52.054;5.294;2022-10-30T00:20:29;13.70;;;6.38;;
69985;SDS011;57328;52.054;5.294;2022-10-30T00:22:56;15.00;;;5.05;;
69985;SDS011;57328;52.054;5.294;2022-10-30T00:25:23;17.48;;;7.35;;
69985;SDS011;57328;52.054;5.294;2022-10-30T00:27:51;16.25;;;6.65;;
69985;SDS011;57328;52.054;5.294;2022-10-30T00:30:18;15.10;;;5.57;;
69985;SDS011;57328;52.054;5.294;2022-10-30T00:32:45;13.98;;;5.95;;
69985;SDS011;57328;52.054;5.294;2022-10-30T00:35:12;10.48;;;4.20;;
69985;SDS011;57328;52.054;5.294;2022-10-30T00:37:39;21.17;;;6.25;;
69985;SDS011;57328;52.054;5.294;2022-10-30T00:40:07;16.23;;;5.63;;
69985;SDS011;57328;52.054;5.294;2022-10-30T00:42:35;15.35;;;6.30;;
69985;SDS011;57328;52.054;5.294;2022-10-30T00:45:02;14.35;;;6.00;;
69985;SDS011;57328;52.054;5.294;2022-10-30T00:50:04;13.85;;;5.68;;
69985;SDS011;57328;52.054;5.294;2022-10-30T00:52:33;8.88;;;3.42;;
69985;SDS011;57328;52.054;5.294;2022-10-30T00:55:03;14.75;;;5.82;;
69985;SDS011;57328;52.054;5.294;2022-10-30T00:57:32;16.50;;;4.00;;
69985;SDS011;57328;52.054;5.294;2022-10-30T01:00:00;13.85;;;5.65;;
69985;SDS011;57328;52.054;5.294;2022-10-30T01:02:27;14.07;;;5.22;;
69985;SDS011;57328;52.054;5.294;2022-10-30T01:04:54;17.70;;;6.60;;
69985;SDS011;57328;52.054;5.294;2022-10-30T01:07:22;16.00;;;6.35;;
69985;SDS011;57328;52.054;5.294;2022-10-30T01:09:49;7.72;;;3.33;;
69985;SDS011;57328;52.054;5.294;2022-10-30T01:12:17;15.55;;;6.57;;
69985;SDS011;57328;52.054;5.294;2022-10-30T01:14:47;12.90;;;5.32;;
69985;SDS011;57328;52.054;5.294;2022-10-30T01:20:12;17.20;;;6.43;;
69985;SDS011;57328;52.054;5.294;2022-10-30T01:22:50;12.10;;;5.28;;
69985;SDS011;57328;52.054;5.294;2022-10-30T01:25:28;14.32;;;6.68;;
69985;SDS011;57328;52.054;5.294;2022-10-30T01:30:40;18.55;;;6.60;;
69985;SDS011;57328;52.054;5.294;2022-10-30T01:33:10;10.40;;;5.05;;
69985;SDS011;57328;52.054;5.294;2022-10-30T01:35:46;10.93;;;4.47;;
69985;SDS011;57328;52.054;5.294;2022-10-30T01:38:16;10.85;;;3.72;;
69985;SDS011;57328;52.054;5.294;2022-10-30T01:40:45;13.65;;;5.30;;
69985;SDS011;57328;52.054;5.294;2022-10-30T01:43:12;13.63;;;5.90;;
69985;SDS011;57328;52.054;5.294;2022-10-30T01:53:58;17.35;;;5.90;;
69985;SDS011;57328;52.054;5.294;2022-10-30T01:59:46;11.00;;;5.25;;
69985;SDS011;57328;52.054;5.294;2022-10-30T02:01:53;16.48;;;5.07;;
69985;SDS011;57328;52.054;5.294;2022-10-30T02:04:20;15.23;;;5.10;;
69985;SDS011;57328;52.054;5.294;2022-10-30T02:06:47;14.82;;;6.22;;
69985;SDS011;57328;52.054;5.294;2022-10-30T02:09:15;16.40;;;6.18;;
69985;SDS011;57328;52.054;5.294;2022-10-30T02:11:43;11.88;;;5.68;;
69985;SDS011;57328;52.054;5.294;2022-10-30T02:14:11;17.80;;;6.20;;
69985;SDS011;57328;52.054;5.294;2022-10-30T02:16:43;15.50;;;7.13;;
69985;SDS011;57328;52.054;5.294;2022-10-30T02:19:11;15.00;;;5.90;;
69985;SDS011;57328;52.054;5.294;2022-10-30T02:21:38;16.65;;;6.05;;
69985;SDS011;57328;52.054;5.294;2022-10-30T02:24:05;13.50;;;5.40;;
69985;SDS011;57328;52.054;5.294;2022-10-30T02:26:33;14.43;;;5.65;;
69985;SDS011;57328;52.054;5.294;2022-10-30T02:29:00;13.82;;;5.65;;
69985;SDS011;57328;52.054;5.294;2022-10-30T02:31:27;11.68;;;5.38;;
69985;SDS011;57328;52.054;5.294;2022-10-30T02:33:54;17.15;;;6.28;;
69985;SDS011;57328;52.054;5.294;2022-10-30T02:36:21;15.02;;;6.20;;
69985;SDS011;57328;52.054;5.294;2022-10-30T02:38:48;11.98;;;3.90;;
69985;SDS011;57328;52.054;5.294;2022-10-30T02:41:16;16.08;;;6.13;;
69985;SDS011;57328;52.054;5.294;2022-10-30T02:43:43;19.20;;;4.88;;
69985;SDS011;57328;52.054;5.294;2022-10-30T02:46:10;11.45;;;4.90;;
69985;SDS011;57328;52.054;5.294;2022-10-30T02:48:37;6.38;;;2.90;;
69985;SDS011;57328;52.054;5.294;2022-10-30T02:51:04;18.40;;;6.60;;
69985;SDS011;57328;52.054;5.294;2022-10-30T02:53:32;13.18;;;5.13;;
69985;SDS011;57328;52.054;5.294;2022-10-30T02:56:03;12.07;;;5.15;;
69985;SDS011;57328;52.054;5.294;2022-10-30T02:58:30;14.27;;;5.38;;
69985;SDS011;57328;52.054;5.294;2022-10-30T03:01:03;14.93;;;5.68;;
69985;SDS011;57328;52.054;5.294;2022-10-30T03:03:30;11.77;;;4.88;;
69985;SDS011;57328;52.054;5.294;2022-10-30T03:06:04;14.15;;;5.78;;
69985;SDS011;57328;52.054;5.294;2022-10-30T03:11:19;15.48;;;5.55;;
69985;SDS011;57328;52.054;5.294;2022-10-30T03:13:47;16.65;;;5.50;;
69985;SDS011;57328;52.054;5.294;2022-10-30T03:16:21;16.40;;;5.75;;
69985;SDS011;57328;52.054;5.294;2022-10-30T03:18:49;11.18;;;3.78;;
69985;SDS011;57328;52.054;5.294;2022-10-30T03:21:17;14.52;;;5.10;;
69985;SDS011;57328;52.054;5.294;2022-10-30T03:23:45;19.38;;;6.22;;
69985;SDS011;57328;52.054;5.294;2022-10-30T03:26:12;9.70;;;4.28;;
69985;SDS011;57328;52.054;5.294;2022-10-30T03:28:39;13.95;;;6.10;;
69985;SDS011;57328;52.054;5.294;2022-10-30T03:31:08;12.07;;;5.25;;
69985;SDS011;57328;52.054;5.294;2022-10-30T03:33:35;14.32;;;5.80;;
69985;SDS011;57328;52.054;5.294;2022-10-30T03:36:03;14.18;;;5.50;;
69985;SDS011;57328;52.054;5.294;2022-10-30T03:38:31;12.93;;;5.85;;
69985;SDS011;57328;52.054;5.294;2022-10-30T03:40:58;11.10;;;4.40;;
69985;SDS011;57328;52.054;5.294;2022-10-30T03:43:25;11.13;;;4.30;;
69985;SDS011;57328;52.054;5.294;2022-10-30T03:45:53;14.50;;;5.47;;
69985;SDS011;57328;52.054;5.294;2022-10-30T03:48:22;19.27;;;5.53;;
69985;SDS011;57328;52.054;5.294;2022-10-30T03:50:51;15.02;;;5.80;;
69985;SDS011;57328;52.054;5.294;2022-10-30T03:53:18;17.35;;;6.45;;
69985;SDS011;57328;52.054;5.294;2022-10-30T03:55:45;12.20;;;4.88;;
69985;SDS011;57328;52.054;5.294;2022-10-30T03:58:12;17.00;;;5.95;;
69985;SDS011;57328;52.054;5.294;2022-10-30T04:00:41;11.57;;;4.50;;
69985;SDS011;57328;52.054;5.294;2022-10-30T04:03:08;11.43;;;5.22;;
69985;SDS011;57328;52.054;5.294;2022-10-30T04:05:36;14.98;;;5.07;;
69985;SDS011;57328;52.054;5.294;2022-10-30T04:08:05;21.77;;;7.15;;
69985;SDS011;57328;52.054;5.294;2022-10-30T04:10:34;16.20;;;5.97;;
69985;SDS011;57328;52.054;5.294;2022-10-30T04:13:05;16.25;;;5.93;;
69985;SDS011;57328;52.054;5.294;2022-10-30T04:15:33;15.70;;;6.65;;
69985;SDS011;57328;52.054;5.294;2022-10-30T04:18:00;15.55;;;6.30;;
69985;SDS011;57328;52.054;5.294;2022-10-30T04:20:28;14.88;;;6.18;;
69985;SDS011;57328;52.054;5.294;2022-10-30T04:22:56;16.83;;;6.13;;
69985;SDS011;57328;52.054;5.294;2022-10-30T04:25:23;12.68;;;5.85;;
69985;SDS011;57328;52.054;5.294;2022-10-30T04:27:51;15.43;;;5.55;;
69985;SDS011;57328;52.054;5.294;2022-10-30T04:30:18;14.68;;;5.88;;
69985;SDS011;57328;52.054;5.294;2022-10-30T04:32:50;14.70;;;5.03;;
69985;SDS011;57328;52.054;5.294;2022-10-30T04:35:18;15.05;;;5.88;;
69985;SDS011;57328;52.054;5.294;2022-10-30T04:37:53;19.63;;;7.15;;
69985;SDS011;57328;52.054;5.294;2022-10-30T04:40:22;16.70;;;6.57;;
69985;SDS011;57328;52.054;5.294;2022-10-30T04:42:50;16.48;;;5.15;;
69985;SDS011;57328;52.054;5.294;2022-10-30T04:45:17;20.17;;;6.72;;
69985;SDS011;57328;52.054;5.294;2022-10-30T04:47:45;13.82;;;5.88;;
69985;SDS011;57328;52.054;5.294;2022-10-30T04:50:12;12.98;;;5.30;;
69985;SDS011;57328;52.054;5.294;2022-10-30T04:52:40;14.68;;;5.95;;
69985;SDS011;57328;52.054;5.294;2022-10-30T04:55:08;15.57;;;6.15;;
69985;SDS011;57328;52.054;5.294;2022-10-30T04:57:35;15.10;;;6.10;;
69985;SDS011;57328;52.054;5.294;2022-10-30T05:00:04;11.43;;;4.25;;
69985;SDS011;57328;52.054;5.294;2022-10-30T05:02:33;12.40;;;5.25;;
69985;SDS011;57328;52.054;5.294;2022-10-30T05:05:01;14.70;;;6.20;;
69985;SDS011;57328;52.054;5.294;2022-10-30T05:07:28;11.30;;;4.47;;
69985;SDS011;57328;52.054;5.294;2022-10-30T05:09:55;14.32;;;6.63;;
69985;SDS011;57328;52.054;5.294;2022-10-30T05:12:22;13.95;;;5.63;;
69985;SDS011;57328;52.054;5.294;2022-10-30T05:14:49;14.63;;;6.10;;
69985;SDS011;57328;52.054;5.294;2022-10-30T05:17:17;13.85;;;5.90;;
69985;SDS011;57328;52.054;5.294;2022-10-30T05:19:44;16.42;;;6.03;;
69985;SDS011;57328;52.054;5.294;2022-10-30T05:22:11;18.45;;;6.85;;
69985;SDS011;57328;52.054;5.294;2022-10-30T05:24:38;20.20;;;6.55;;
69985;SDS011;57328;52.054;5.294;2022-10-30T05:27:05;17.60;;;6.38;;
69985;SDS011;57328;52.054;5.294;2022-10-30T05:29:33;15.90;;;6.15;;
69985;SDS011;57328;52.054;5.294;2022-10-30T05:32:00;14.80;;;5.70;;
69985;SDS011;57328;52.054;5.294;2022-10-30T05:34:27;14.80;;;6.63;;
69985;SDS011;57328;52.054;5.294;2022-10-30T05:36:54;13.73;;;5.13;;
69985;SDS011;57328;52.054;5.294;2022-10-30T05:39:21;19.23;;;7.82;;
69985;SDS011;57328;52.054;5.294;2022-10-30T05:41:51;18.38;;;6.45;;
69985;SDS011;57328;52.054;5.294;2022-10-30T05:44:18;16.45;;;7.18;;
69985;SDS011;57328;52.054;5.294;2022-10-30T05:49:32;18.52;;;6.10;;
69985;SDS011;57328;52.054;5.294;2022-10-30T05:51:59;19.70;;;7.05;;
69985;SDS011;57328;52.054;5.294;2022-10-30T05:54:26;18.20;;;6.13;;
69985;SDS011;57328;52.054;5.294;2022-10-30T05:56:55;19.35;;;7.88;;
69985;SDS011;57328;52.054;5.294;2022-10-30T05:59:23;15.15;;;5.75;;
69985;SDS011;57328;52.054;5.294;2022-10-30T06:01:50;19.35;;;8.32;;
69985;SDS011;57328;52.054;5.294;2022-10-30T06:04:17;25.77;;;9.32;;
69985;SDS011;57328;52.054;5.294;2022-10-30T06:06:44;21.20;;;8.75;;
69985;SDS011;57328;52.054;5.294;2022-10-30T06:09:11;18.20;;;7.68;;
69985;SDS011;57328;52.054;5.294;2022-10-30T06:11:39;21.88;;;9.15;;
69985;SDS011;57328;52.054;5.294;2022-10-30T06:14:06;23.23;;;9.68;;
69985;SDS011;57328;52.054;5.294;2022-10-30T06:16:33;21.88;;;8.80;;
69985;SDS011;57328;52.054;5.294;2022-10-30T06:19:00;15.45;;;6.55;;
69985;SDS011;57328;52.054;5.294;2022-10-30T06:21:27;16.40;;;7.20;;
69985;SDS011;57328;52.054;5.294;2022-10-30T06:23:54;14.45;;;5.97;;
69985;SDS011;57328;52.054;5.294;2022-10-30T06:26:21;17.33;;;7.88;;
69985;SDS011;57328;52.054;5.294;2022-10-30T06:28:49;19.40;;;6.82;;
69985;SDS011;57328;52.054;5.294;2022-10-30T06:31:16;18.80;;;7.90;;
69985;SDS011;57328;52.054;5.294;2022-10-30T06:33:43;18.52;;;7.25;;
69985;SDS011;57328;52.054;5.294;2022-10-30T06:36:10;20.88;;;8.30;;
69985;SDS011;57328;52.054;5.294;2022-10-30T06:38:37;22.48;;;9.00;;
69985;SDS011;57328;52.054;5.294;2022-10-30T06:41:04;21.98;;;7.80;;
69985;SDS011;57328;52.054;5.294;2022-10-30T06:43:31;21.08;;;7.82;;
69985;SDS011;57328;52.054;5.294;2022-10-30T06:45:59;20.35;;;8.82;;
69985;SDS011;57328;52.054;5.294;2022-10-30T06:48:26;18.40;;;8.48;;
69985;SDS011;57328;52.054;5.294;2022-10-30T06:50:57;24.48;;;9.40;;
69985;SDS011;57328;52.054;5.294;2022-10-30T06:53:24;20.17;;;8.48;;
69985;SDS011;57328;52.054;5.294;2022-10-30T06:58:24;19.30;;;8.50;;
69985;SDS011;57328;52.054;5.294;2022-10-30T07:00:51;22.45;;;9.30;;
69985;SDS011;57328;52.054;5.294;2022-10-30T07:03:18;18.00;;;8.30;;
69985;SDS011;57328;52.054;5.294;2022-10-30T07:05:46;25.77;;;8.95;;
69985;SDS011;57328;52.054;5.294;2022-10-30T07:08:13;22.98;;;8.88;;
69985;SDS011;57328;52.054;5.294;2022-10-30T07:10:40;23.27;;;8.48;;
69985;SDS011;57328;52.054;5.294;2022-10-30T07:13:07;22.98;;;8.57;;
69985;SDS011;57328;52.054;5.294;2022-10-30T07:15:34;24.23;;;9.55;;
69985;SDS011;57328;52.054;5.294;2022-10-30T07:18:02;20.25;;;8.07;;
69985;SDS011;57328;52.054;5.294;2022-10-30T07:20:31;18.45;;;7.78;;
69985;SDS011;57328;52.054;5.294;2022-10-30T07:22:58;18.70;;;8.00;;
69985;SDS011;57328;52.054;5.294;2022-10-30T07:25:25;18.60;;;7.97;;
69985;SDS011;57328;52.054;5.294;2022-10-30T07:27:53;19.00;;;7.50;;
69985;SDS011;57328;52.054;5.294;2022-10-30T07:30:21;18.05;;;7.97;;
69985;SDS011;57328;52.054;5.294;2022-10-30T07:37:43;20.58;;;7.72;;
69985;SDS011;57328;52.054;5.294;2022-10-30T07:40:10;18.33;;;8.52;;
69985;SDS011;57328;52.054;5.294;2022-10-30T07:42:38;19.58;;;8.93;;
69985;SDS011;57328;52.054;5.294;2022-10-30T07:45:05;17.05;;;7.85;;
69985;SDS011;57328;52.054;5.294;2022-10-30T07:47:37;20.30;;;8.98;;
69985;SDS011;57328;52.054;5.294;2022-10-30T07:50:04;17.45;;;7.43;;
69985;SDS011;57328;52.054;5.294;2022-10-30T07:52:31;20.00;;;8.18;;
69985;SDS011;57328;52.054;5.294;2022-10-30T07:54:59;21.75;;;7.35;;
69985;SDS011;57328;52.054;5.294;2022-10-30T07:57:26;18.33;;;8.05;;
69985;SDS011;57328;52.054;5.294;2022-10-30T07:59:53;16.10;;;7.65;;
69985;SDS011;57328;52.054;5.294;2022-10-30T08:02:26;20.35;;;7.85;;
69985;SDS011;57328;52.054;5.294;2022-10-30T08:04:53;19.70;;;6.43;;
69985;SDS011;57328;52.054;5.294;2022-10-30T08:07:21;15.30;;;6.55;;
69985;SDS011;57328;52.054;5.294;2022-10-30T08:09:48;19.10;;;7.25;;
69985;SDS011;57328;52.054;5.294;2022-10-30T08:12:15;19.42;;;7.88;;
69985;SDS011;57328;52.054;5.294;2022-10-30T08:14:43;20.48;;;7.50;;
69985;SDS011;57328;52.054;5.294;2022-10-30T08:17:10;16.95;;;8.35;;
69985;SDS011;57328;52.054;5.294;2022-10-30T08:19:37;17.63;;;8.15;;
69985;SDS011;57328;52.054;5.294;2022-10-30T08:22:04;22.20;;;8.02;;
69985;SDS011;57328;52.054;5.294;2022-10-30T08:24:31;18.08;;;8.68;;
69985;SDS011;57328;52.054;5.294;2022-10-30T08:26:58;18.75;;;7.70;;
69985;SDS011;57328;52.054;5.294;2022-10-30T08:32:08;17.67;;;8.00;;
69985;SDS011;57328;52.054;5.294;2022-10-30T08:34:35;16.90;;;7.32;;
69985;SDS011;57328;52.054;5.294;2022-10-30T08:37:02;19.50;;;8.27;;
69985;SDS011;57328;52.054;5.294;2022-10-30T08:39:32;19.88;;;8.48;;
69985;SDS011;57328;52.054;5.294;2022-10-30T08:42:00;20.60;;;8.00;;
69985;SDS011;57328;52.054;5.294;2022-10-30T08:44:27;21.50;;;8.88;;
69985;SDS011;57328;52.054;5.294;2022-10-30T08:46:54;16.52;;;7.65;;
69985;SDS011;57328;52.054;5.294;2022-10-30T08:49:21;16.67;;;8.98;;
69985;SDS011;57328;52.054;5.294;2022-10-30T08:51:48;18.83;;;8.68;;
69985;SDS011;57328;52.054;5.294;2022-10-30T08:54:16;16.73;;;7.45;;
69985;SDS011;57328;52.054;5.294;2022-10-30T08:56:43;22.45;;;8.75;;
69985;SDS011;57328;52.054;5.294;2022-10-30T08:59:10;18.15;;;8.13;;
69985;SDS011;57328;52.054;5.294;2022-10-30T09:01:45;19.27;;;8.80;;
69985;SDS011;57328;52.054;5.294;2022-10-30T09:04:12;18.65;;;8.20;;
69985;SDS011;57328;52.054;5.294;2022-10-30T09:06:40;24.17;;;9.52;;
69985;SDS011;57328;52.054;5.294;2022-10-30T09:09:07;19.50;;;8.77;;
69985;SDS011;57328;52.054;5.294;2022-10-30T09:11:34;20.00;;;8.60;;
69985;SDS011;57328;52.054;5.294;2022-10-30T09:14:01;18.55;;;8.75;;
69985;SDS011;57328;52.054;5.294;2022-10-30T09:16:28;17.50;;;8.98;;
69985;SDS011;57328;52.054;5.294;2022-10-30T09:18:55;16.27;;;7.63;;
69985;SDS011;57328;52.054;5.294;2022-10-30T09:21:23;19.20;;;8.52;;
69985;SDS011;57328;52.054;5.294;2022-10-30T09:23:50;23.92;;;9.10;;
69985;SDS011;57328;52.054;5.294;2022-10-30T09:26:17;16.42;;;7.22;;
69985;SDS011;57328;52.054;5.294;2022-10-30T09:28:46;20.88;;;8.13;;
69985;SDS011;57328;52.054;5.294;2022-10-30T09:31:13;18.20;;;8.40;;
69985;SDS011;57328;52.054;5.294;2022-10-30T09:33:40;19.00;;;8.65;;
69985;SDS011;57328;52.054;5.294;2022-10-30T09:36:07;19.90;;;8.10;;
69985;SDS011;57328;52.054;5.294;2022-10-30T09:38:34;23.80;;;9.27;;
69985;SDS011;57328;52.054;5.294;2022-10-30T09:41:23;19.80;;;8.38;;
69985;SDS011;57328;52.054;5.294;2022-10-30T09:54:46;15.48;;;7.50;;
69985;SDS011;57328;52.054;5.294;2022-10-30T09:59:59;16.98;;;8.43;;
69985;SDS011;57328;52.054;5.294;2022-10-30T10:02:32;16.48;;;8.30;;
69985;SDS011;57328;52.054;5.294;2022-10-30T10:07:51;20.90;;;9.07;;
69985;SDS011;57328;52.054;5.294;2022-10-30T10:16:17;17.60;;;8.38;;
69985;SDS011;57328;52.054;5.294;2022-10-30T10:18:50;18.90;;;8.07;;
69985;SDS011;57328;52.054;5.294;2022-10-30T10:21:25;19.40;;;7.55;;
69985;SDS011;57328;52.054;5.294;2022-10-30T10:23:54;21.75;;;8.68;;
69985;SDS011;57328;52.054;5.294;2022-10-30T10:36:23;17.58;;;8.50;;
69985;SDS011;57328;52.054;5.294;2022-10-30T10:44:06;17.33;;;8.60;;
69985;SDS011;57328;52.054;5.294;2022-10-30T10:46:46;17.80;;;8.38;;
69985;SDS011;57328;52.054;5.294;2022-10-30T10:51:50;19.40;;;7.78;;
69985;SDS011;57328;52.054;5.294;2022-10-30T10:54:19;19.08;;;9.07;;
69985;SDS011;57328;52.054;5.294;2022-10-30T10:56:49;18.77;;;7.68;;
69985;SDS011;57328;52.054;5.294;2022-10-30T10:59:37;19.20;;;8.23;;
69985;SDS011;57328;52.054;5.294;2022-10-30T11:07:49;18.65;;;7.57;;
69985;SDS011;57328;52.054;5.294;2022-10-30T11:09:56;23.73;;;8.50;;
69985;SDS011;57328;52.054;5.294;2022-10-30T11:12:26;18.92;;;8.15;;
69985;SDS011;57328;52.054;5.294;2022-10-30T11:15:17;19.63;;;8.65;;
69985;SDS011;57328;52.054;5.294;2022-10-30T11:20:17;23.60;;;8.77;;
69985;SDS011;57328;52.054;5.294;2022-10-30T11:22:48;18.55;;;8.13;;
69985;SDS011;57328;52.054;5.294;2022-10-30T11:25:23;21.73;;;8.20;;
69985;SDS011;57328;52.054;5.294;2022-10-30T11:27:57;18.10;;;8.48;;
69985;SDS011;57328;52.054;5.294;2022-10-30T11:30:25;18.83;;;7.85;;
69985;SDS011;57328;52.054;5.294;2022-10-30T11:32:54;22.27;;;8.15;;
69985;SDS011;57328;52.054;5.294;2022-10-30T11:35:22;18.75;;;8.23;;
69985;SDS011;57328;52.054;5.294;2022-10-30T11:37:50;21.52;;;7.72;;
69985;SDS011;57328;52.054;5.294;2022-10-30T11:42:49;15.02;;;7.88;;
69985;SDS011;57328;52.054;5.294;2022-10-30T11:45:23;19.92;;;7.70;;
69985;SDS011;57328;52.054;5.294;2022-10-30T11:47:51;18.38;;;7.78;;
69985;SDS011;57328;52.054;5.294;2022-10-30T11:50:24;19.67;;;8.18;;
69985;SDS011;57328;52.054;5.294;2022-10-30T11:52:56;21.80;;;8.20;;
69985;SDS011;57328;52.054;5.294;2022-10-30T11:58:31;19.80;;;7.50;;
69985;SDS011;57328;52.054;5.294;2022-10-30T12:04:12;14.27;;;6.75;;
69985;SDS011;57328;52.054;5.294;2022-10-30T12:06:40;19.80;;;7.85;;
69985;SDS011;57328;52.054;5.294;2022-10-30T12:09:11;16.92;;;7.10;;
69985;SDS011;57328;52.054;5.294;2022-10-30T12:14:31;18.02;;;7.55;;
69985;SDS011;57328;52.054;5.294;2022-10-30T12:16:59;19.08;;;6.57;;
69985;SDS011;57328;52.054;5.294;2022-10-30T12:19:27;20.77;;;8.10;;
69985;SDS011;57328;52.054;5.294;2022-10-30T12:21:56;20.58;;;7.05;;
69985;SDS011;57328;52.054;5.294;2022-10-30T12:24:30;19.27;;;7.00;;
69985;SDS011;57328;52.054;5.294;2022-10-30T12:29:27;20.67;;;7.35;;
69985;SDS011;57328;52.054;5.294;2022-10-30T12:32:20;17.05;;;7.18;;
69985;SDS011;57328;52.054;5.294;2022-10-30T12:34:52;18.17;;;7.05;;
69985;SDS011;57328;52.054;5.294;2022-10-30T12:39:54;14.65;;;6.38;;
69985;SDS011;57328;52.054;5.294;2022-10-30T12:42:22;18.38;;;7.55;;
69985;SDS011;57328;52.054;5.294;2022-10-30T12:44:52;19.48;;;7.18;;
69985;SDS011;57328;52.054;5.294;2022-10-30T12:49:59;15.80;;;7.53;;
69985;SDS011;57328;52.054;5.294;2022-10-30T12:52:34;21.17;;;7.70;;
69985;SDS011;57328;52.054;5.294;2022-10-30T12:55:32;17.65;;;7.55;;
69985;SDS011;57328;52.054;5.294;2022-10-30T12:58:02;19.45;;;7.13;;
69985;SDS011;57328;52.054;5.294;2022-10-30T13:00:32;21.00;;;7.50;;
69985;SDS011;57328;52.054;5.294;2022-10-30T13:06:07;19.17;;;7.57;;
69985;SDS011;57328;52.054;5.294;2022-10-30T13:08:58;25.65;;;7.47;;
69985;SDS011;57328;52.054;5.294;2022-10-30T13:11:38;17.80;;;7.25;;
69985;SDS011;57328;52.054;5.294;2022-10-30T13:14:30;19.13;;;7.43;;
69985;SDS011;57328;52.054;5.294;2022-10-30T13:16:58;17.02;;;8.00;;
69985;SDS011;57328;52.054;5.294;2022-10-30T13:19:25;16.13;;;7.72;;
69985;SDS011;57328;52.054;5.294;2022-10-30T13:22:01;17.27;;;7.57;;
69985;SDS011;57328;52.054;5.294;2022-10-30T13:27:15;22.17;;;8.15;;
69985;SDS011;57328;52.054;5.294;2022-10-30T13:29:55;15.75;;;6.05;;
69985;SDS011;57328;52.054;5.294;2022-10-30T13:32:34;17.13;;;6.88;;
69985;SDS011;57328;52.054;5.294;2022-10-30T13:37:49;17.65;;;7.03;;
69985;SDS011;57328;52.054;5.294;2022-10-30T13:45:50;15.50;;;6.90;;
69985;SDS011;57328;52.054;5.294;2022-10-30T13:53:30;15.40;;;7.30;;
69985;SDS011;57328;52.054;5.294;2022-10-30T13:56:00;15.88;;;6.20;;
69985;SDS011;57328;52.054;5.294;2022-10-30T13:58:31;17.48;;;6.82;;
69985;SDS011;57328;52.054;5.294;2022-10-30T14:01:02;20.98;;;7.85;;
69985;SDS011;57328;52.054;5.294;2022-10-30T14:09:14;18.25;;;7.55;;
69985;SDS011;57328;52.054;5.294;2022-10-30T14:11:44;19.67;;;9.40;;
69985;SDS011;57328;52.054;5.294;2022-10-30T14:16:40;18.17;;;6.63;;
69985;SDS011;57328;52.054;5.294;2022-10-30T14:19:11;19.63;;;8.38;;
69985;SDS011;57328;52.054;5.294;2022-10-30T14:21:43;13.98;;;6.25;;
69985;SDS011;57328;52.054;5.294;2022-10-30T14:24:17;28.10;;;8.85;;
69985;SDS011;57328;52.054;5.294;2022-10-30T14:26:47;21.85;;;9.20;;
69985;SDS011;57328;52.054;5.294;2022-10-30T14:34:44;18.08;;;7.82;;
69985;SDS011;57328;52.054;5.294;2022-10-30T14:37:11;21.30;;;7.78;;
69985;SDS011;57328;52.054;5.294;2022-10-30T14:39:42;19.08;;;8.07;;
69985;SDS011;57328;52.054;5.294;2022-10-30T14:42:30;18.85;;;7.53;;
69985;SDS011;57328;52.054;5.294;2022-10-30T14:55:34;17.00;;;7.65;;
69985;SDS011;57328;52.054;5.294;2022-10-30T15:03:04;16.55;;;6.65;;
69985;SDS011;57328;52.054;5.294;2022-10-30T15:05:37;13.57;;;5.95;;
69985;SDS011;57328;52.054;5.294;2022-10-30T15:10:33;19.67;;;8.65;;
69985;SDS011;57328;52.054;5.294;2022-10-30T15:15:37;13.35;;;5.85;;
69985;SDS011;57328;52.054;5.294;2022-10-30T15:18:14;20.58;;;8.75;;
69985;SDS011;57328;52.054;5.294;2022-10-30T15:21:04;25.25;;;11.27;;
69985;SDS011;57328;52.054;5.294;2022-10-30T15:23:31;20.33;;;8.25;;
69985;SDS011;57328;52.054;5.294;2022-10-30T15:28:29;23.63;;;10.32;;
69985;SDS011;57328;52.054;5.294;2022-10-30T15:33:26;26.88;;;9.57;;
69985;SDS011;57328;52.054;5.294;2022-10-30T15:35:57;22.70;;;9.90;;
69985;SDS011;57328;52.054;5.294;2022-10-30T15:38:24;25.17;;;10.20;;
69985;SDS011;57328;52.054;5.294;2022-10-30T15:40:58;26.05;;;9.80;;
69985;SDS011;57328;52.054;5.294;2022-10-30T15:43:30;19.80;;;9.57;;
69985;SDS011;57328;52.054;5.294;2022-10-30T15:45:57;21.25;;;9.52;;
69985;SDS011;57328;52.054;5.294;2022-10-30T15:51:12;16.77;;;7.25;;
69985;SDS011;57328;52.054;5.294;2022-10-30T15:53:45;25.77;;;9.75;;
69985;SDS011;57328;52.054;5.294;2022-10-30T15:59:23;23.05;;;9.55;;
69985;SDS011;57328;52.054;5.294;2022-10-30T16:01:52;21.67;;;9.23;;
69985;SDS011;57328;52.054;5.294;2022-10-30T16:04:21;17.55;;;8.68;;
69985;SDS011;57328;52.054;5.294;2022-10-30T16:07:13;21.13;;;8.13;;
69985;SDS011;57328;52.054;5.294;2022-10-30T16:09:57;18.17;;;7.57;;
69985;SDS011;57328;52.054;5.294;2022-10-30T16:12:31;18.05;;;6.60;;
69985;SDS011;57328;52.054;5.294;2022-10-30T16:15:01;14.38;;;6.72;;
69985;SDS011;57328;52.054;5.294;2022-10-30T16:17:30;13.57;;;5.60;;
69985;SDS011;57328;52.054;5.294;2022-10-30T16:20:02;16.10;;;5.53;;
69985;SDS011;57328;52.054;5.294;2022-10-30T16:22:33;9.52;;;4.07;;
69985;SDS011;57328;52.054;5.294;2022-10-30T16:25:04;12.52;;;4.60;;
69985;SDS011;57328;52.054;5.294;2022-10-30T16:27:32;11.75;;;4.57;;
69985;SDS011;57328;52.054;5.294;2022-10-30T16:30:00;12.60;;;4.35;;
69985;SDS011;57328;52.054;5.294;2022-10-30T16:32:30;16.08;;;5.20;;
69985;SDS011;57328;52.054;5.294;2022-10-30T16:37:45;13.15;;;4.78;;
69985;SDS011;57328;52.054;5.294;2022-10-30T16:40:15;14.13;;;4.82;;
69985;SDS011;57328;52.054;5.294;2022-10-30T16:42:46;12.07;;;4.53;;
69985;SDS011;57328;52.054;5.294;2022-10-30T16:47:45;13.43;;;4.65;;
69985;SDS011;57328;52.054;5.294;2022-10-30T16:50:17;9.93;;;4.43;;
69985;SDS011;57328;52.054;5.294;2022-10-30T16:52:45;11.45;;;5.10;;
69985;SDS011;57328;52.054;5.294;2022-10-30T16:55:17;15.18;;;5.65;;
69985;SDS011;57328;52.054;5.294;2022-10-30T16:58:03;16.35;;;6.43;;
69985;SDS011;57328;52.054;5.294;2022-10-30T17:00:31;12.88;;;5.25;;
69985;SDS011;57328;52.054;5.294;2022-10-30T17:03:07;15.32;;;6.22;;
69985;SDS011;57328;52.054;5.294;2022-10-30T17:05:34;15.98;;;7.10;;
69985;SDS011;57328;52.054;5.294;2022-10-30T17:08:03;17.35;;;6.43;;
69985;SDS011;57328;52.054;5.294;2022-10-30T17:10:35;13.27;;;6.10;;
69985;SDS011;57328;52.054;5.294;2022-10-30T17:15:48;13.45;;;5.25;;
69985;SDS011;57328;52.054;5.294;2022-10-30T17:18:15;14.88;;;6.68;;
69985;SDS011;57328;52.054;5.294;2022-10-30T17:20:56;11.48;;;4.13;;
69985;SDS011;57328;52.054;5.294;2022-10-30T17:23:30;12.60;;;4.85;;
69985;SDS011;57328;52.054;5.294;2022-10-30T17:25:57;12.05;;;4.93;;
69985;SDS011;57328;52.054;5.294;2022-10-30T17:28:28;14.00;;;3.80;;
69985;SDS011;57328;52.054;5.294;2022-10-30T17:33:44;10.75;;;3.47;;
69985;SDS011;57328;52.054;5.294;2022-10-30T17:36:12;15.30;;;4.72;;
69985;SDS011;57328;52.054;5.294;2022-10-30T17:38:39;29.45;;;12.25;;
69985;SDS011;57328;52.054;5.294;2022-10-30T17:41:08;14.68;;;6.85;;
69985;SDS011;57328;52.054;5.294;2022-10-30T17:43:47;30.42;;;14.90;;
69985;SDS011;57328;52.054;5.294;2022-10-30T17:46:15;20.80;;;9.50;;